Terminal Aerodrome Forecast
Issued by NWS

Current Version | Previous Version | Text Only | Print | Product List | Glossary Off
Versions: 1 2 3 4 5 6 7 8 9 10 11 12 13 14 15 16 17 18 19 20

020
FTUS41 KPBZ 241019 AAD
TAFHLG
TAF AMD
KHLG 241019Z 2410/2506 VRB02KT 4SM BR SKC
      TEMPO 2410/2412 1/2SM FG VV002
     FM241300 27006KT P6SM SKC=

USA.gov is the U.S. government's official web portal to all federal, state and local government web resources and services.